EZY36VJ EGGD-LFMN
Flight info
| Callsign | EZY36VJ |
|---|---|
| Flight time | 1h 53m |
| Altitude | 33000 |
| Route | HAWFA L607 ALHAD UN859 VAPID L18 MID UL612 VEULE DCT KOTAP DCT KETEX DCT KOTIS DCT KUKOR DCT UTUVA DCT LERGA DCT LIQID DCT LATAM DCT TUNUR DCT NISAR |
| Aircraft | A320/M-SDE2E3FGHIJ1RWXYZ/LB1 |
Departure
| Time | 2026-05-07 14:30 |
|---|---|
| Airport | Bristol Airport (EGGD) |
Arrival
| Time | 2026-05-07 16:23 |
|---|---|
| Airport | Nice-Côte d'Azur Airport (LFMN) |
| Time | Latitude | Longitude | Altitude | Speed | Heading |
|---|---|---|---|---|---|
| 2026-05-07 13:41 | 51.38555 | -2.71470 | 623 ft | 0 kts | 356° |
| 2026-05-07 14:19 | 51.38543 | -2.71469 | 623 ft | 3 kts | 356° |
| 2026-05-07 14:20 | 51.38521 | -2.71467 | 623 ft | 2 kts | 356° |
| 2026-05-07 14:20 | 51.38504 | -2.71468 | 622 ft | 3 kts | 46° |
| 2026-05-07 14:20 | 51.38497 | -2.71495 | 627 ft | 3 kts | 87° |
| 2026-05-07 14:20 | 51.38496 | -2.71524 | 625 ft | 0 kts | 86° |
| 2026-05-07 14:21 | 51.38497 | -2.71497 | 619 ft | 3 kts | 86° |
| 2026-05-07 14:21 | 51.38498 | -2.71473 | 619 ft | 0 kts | 86° |
| 2026-05-07 14:24 | 51.38498 | -2.71461 | 622 ft | 2 kts | 86° |
| 2026-05-07 14:25 | 51.38499 | -2.71435 | 618 ft | 2 kts | 89° |
| 2026-05-07 14:25 | 51.38479 | -2.71403 | 615 ft | 6 kts | 168° |
| 2026-05-07 14:25 | 51.38449 | -2.71374 | 619 ft | 6 kts | 120° |
| 2026-05-07 14:25 | 51.38449 | -2.71302 | 621 ft | 7 kts | 86° |
| 2026-05-07 14:26 | 51.38452 | -2.71225 | 618 ft | 8 kts | 86° |
| 2026-05-07 14:26 | 51.38455 | -2.71118 | 617 ft | 9 kts | 87° |
| 2026-05-07 14:26 | 51.38460 | -2.71009 | 615 ft | 12 kts | 85° |
| 2026-05-07 14:26 | 51.38464 | -2.70885 | 613 ft | 7 kts | 86° |
| 2026-05-07 14:27 | 51.38468 | -2.70782 | 624 ft | 11 kts | 86° |
| 2026-05-07 14:27 | 51.38474 | -2.70659 | 610 ft | 9 kts | 86° |
| 2026-05-07 14:27 | 51.38476 | -2.70571 | 609 ft | 6 kts | 98° |
| 2026-05-07 14:27 | 51.38444 | -2.70524 | 618 ft | 5 kts | 158° |
| 2026-05-07 14:28 | 51.38414 | -2.70511 | 612 ft | 5 kts | 165° |
| 2026-05-07 14:28 | 51.38375 | -2.70494 | 621 ft | 2 kts | 165° |
| 2026-05-07 14:28 | 51.38369 | -2.70491 | 618 ft | 2 kts | 165° |
| 2026-05-07 14:28 | 51.38338 | -2.70490 | 615 ft | 6 kts | 198° |
| 2026-05-07 14:29 | 51.38320 | -2.70553 | 617 ft | 6 kts | 267° |
| 2026-05-07 14:29 | 51.38318 | -2.70607 | 610 ft | 14 kts | 266° |
| 2026-05-07 14:29 | 51.38296 | -2.71176 | 602 ft | 92 kts | 266° |
| 2026-05-07 14:29 | 51.38242 | -2.72555 | 626 ft | 154 kts | 266° |
| 2026-05-07 14:30 | 51.38180 | -2.74395 | 1160 ft | 166 kts | 267° |
| 2026-05-07 14:30 | 51.38118 | -2.76262 | 1807 ft | 177 kts | 267° |
| 2026-05-07 14:30 | 51.38045 | -2.78361 | 2113 ft | 200 kts | 267° |
| 2026-05-07 14:30 | 51.37963 | -2.80707 | 2452 ft | 224 kts | 266° |
| 2026-05-07 14:31 | 51.37872 | -2.83288 | 3106 ft | 236 kts | 267° |
| 2026-05-07 14:31 | 51.37808 | -2.85939 | 3993 ft | 241 kts | 273° |
| 2026-05-07 14:31 | 51.38142 | -2.88570 | 4859 ft | 244 kts | 292° |
| 2026-05-07 14:31 | 51.39022 | -2.90897 | 5697 ft | 248 kts | 312° |
| 2026-05-07 14:32 | 51.40389 | -2.92589 | 6536 ft | 252 kts | 334° |
| 2026-05-07 14:32 | 51.42074 | -2.93371 | 7361 ft | 255 kts | 355° |
| 2026-05-07 14:32 | 51.43842 | -2.93091 | 8174 ft | 259 kts | 17° |
| 2026-05-07 14:32 | 51.45441 | -2.91747 | 8989 ft | 263 kts | 39° |
| 2026-05-07 14:33 | 51.46621 | -2.89502 | 9770 ft | 267 kts | 62° |
| 2026-05-07 14:33 | 51.47179 | -2.86661 | 10538 ft | 270 kts | 85° |
| 2026-05-07 14:33 | 51.47280 | -2.83637 | 11304 ft | 273 kts | 88° |
| 2026-05-07 14:33 | 51.47360 | -2.80582 | 12057 ft | 276 kts | 88° |
| 2026-05-07 14:34 | 51.47442 | -2.77488 | 12791 ft | 279 kts | 88° |
| 2026-05-07 14:34 | 51.47588 | -2.74368 | 13508 ft | 282 kts | 79° |
| 2026-05-07 14:34 | 51.48217 | -2.71378 | 14194 ft | 285 kts | 62° |
| 2026-05-07 14:34 | 51.49397 | -2.68722 | 14505 ft | 304 kts | 44° |
| 2026-05-07 14:35 | 51.51078 | -2.66468 | 14655 ft | 327 kts | 41° |
| 2026-05-07 14:35 | 51.52478 | -2.63495 | 14864 ft | 344 kts | 66° |
| 2026-05-07 14:35 | 51.53097 | -2.59756 | 15386 ft | 351 kts | 84° |
| 2026-05-07 14:35 | 51.53042 | -2.55876 | 15980 ft | 355 kts | 97° |
| 2026-05-07 14:36 | 51.52749 | -2.51914 | 16598 ft | 359 kts | 96° |
| 2026-05-07 14:36 | 51.52481 | -2.47918 | 17218 ft | 362 kts | 96° |
| 2026-05-07 14:36 | 51.52224 | -2.43883 | 17824 ft | 365 kts | 96° |
| 2026-05-07 14:36 | 51.51966 | -2.39806 | 18411 ft | 369 kts | 96° |
| 2026-05-07 14:37 | 51.51703 | -2.35696 | 18985 ft | 372 kts | 96° |
| 2026-05-07 14:37 | 51.51154 | -2.27368 | 20081 ft | 378 kts | 96° |
| 2026-05-07 14:37 | 51.50866 | -2.23151 | 20622 ft | 381 kts | 96° |
| 2026-05-07 14:38 | 51.50568 | -2.18909 | 21143 ft | 384 kts | 96° |
| 2026-05-07 14:38 | 51.50266 | -2.14629 | 21648 ft | 387 kts | 96° |
| 2026-05-07 14:38 | 51.49960 | -2.10316 | 22138 ft | 390 kts | 96° |
| 2026-05-07 14:38 | 51.49650 | -2.05979 | 22613 ft | 393 kts | 96° |
| 2026-05-07 14:39 | 51.49339 | -2.01608 | 23075 ft | 396 kts | 96° |
| 2026-05-07 14:39 | 51.49028 | -1.97206 | 23528 ft | 399 kts | 96° |
| 2026-05-07 14:39 | 51.48719 | -1.92769 | 23969 ft | 401 kts | 96° |
| 2026-05-07 14:39 | 51.48407 | -1.88307 | 24392 ft | 404 kts | 96° |
| 2026-05-07 14:40 | 51.48085 | -1.83812 | 24811 ft | 407 kts | 96° |
| 2026-05-07 14:40 | 51.47755 | -1.79289 | 25213 ft | 410 kts | 97° |
| 2026-05-07 14:40 | 51.47415 | -1.74733 | 25613 ft | 412 kts | 97° |
| 2026-05-07 14:40 | 51.47072 | -1.70160 | 26008 ft | 415 kts | 97° |
| 2026-05-07 14:41 | 51.46828 | -1.67286 | 26241 ft | 416 kts | 100° |
| 2026-05-07 14:41 | 51.46209 | -1.62594 | 27086 ft | 421 kts | 104° |
| 2026-05-07 14:41 | 51.45581 | -1.57968 | 27290 ft | 428 kts | 104° |
| 2026-05-07 14:41 | 51.44941 | -1.53295 | 27622 ft | 431 kts | 104° |
| 2026-05-07 14:42 | 51.44296 | -1.48593 | 27981 ft | 434 kts | 104° |
| 2026-05-07 14:42 | 51.43645 | -1.43858 | 28352 ft | 436 kts | 104° |
| 2026-05-07 14:42 | 51.42992 | -1.39106 | 28710 ft | 438 kts | 104° |
| 2026-05-07 14:42 | 51.42331 | -1.34327 | 29071 ft | 440 kts | 104° |
| 2026-05-07 14:43 | 51.41665 | -1.29522 | 29430 ft | 443 kts | 104° |
| 2026-05-07 14:43 | 51.40858 | -1.24766 | 29773 ft | 443 kts | 112° |
| 2026-05-07 14:43 | 51.39544 | -1.20307 | 30106 ft | 442 kts | 123° |
| 2026-05-07 14:43 | 51.37758 | -1.16312 | 30394 ft | 441 kts | 134° |
| 2026-05-07 14:44 | 51.35572 | -1.12900 | 30668 ft | 440 kts | 144° |
| 2026-05-07 14:44 | 51.33040 | -1.10170 | 30941 ft | 438 kts | 154° |
| 2026-05-07 14:44 | 51.30290 | -1.08076 | 31142 ft | 439 kts | 158° |
| 2026-05-07 14:44 | 51.27570 | -1.05808 | 31396 ft | 444 kts | 150° |
| 2026-05-07 14:45 | 51.25089 | -1.02852 | 31749 ft | 447 kts | 141° |
| 2026-05-07 14:45 | 51.22924 | -0.99288 | 32123 ft | 449 kts | 131° |
| 2026-05-07 14:45 | 51.21026 | -0.95332 | 32489 ft | 449 kts | 129° |
| 2026-05-07 14:45 | 51.19150 | -0.91364 | 32860 ft | 448 kts | 129° |
| 2026-05-07 14:46 | 51.17275 | -0.87401 | 33231 ft | 447 kts | 129° |
| 2026-05-07 14:46 | 51.15401 | -0.83448 | 33604 ft | 447 kts | 129° |
| 2026-05-07 14:46 | 51.13532 | -0.79513 | 34002 ft | 445 kts | 130° |
| 2026-05-07 14:46 | 51.11659 | -0.75579 | 34262 ft | 445 kts | 130° |
| 2026-05-07 14:47 | 51.09789 | -0.71662 | 34495 ft | 444 kts | 130° |
| 2026-05-07 14:47 | 51.07917 | -0.67755 | 34736 ft | 444 kts | 130° |
| 2026-05-07 14:47 | 51.05989 | -0.64033 | 34961 ft | 442 kts | 136° |
| 2026-05-07 14:47 | 51.03729 | -0.60771 | 35043 ft | 435 kts | 146° |
| 2026-05-07 14:48 | 50.98762 | -0.55405 | 35074 ft | 431 kts | 149° |
| 2026-05-07 14:48 | 50.93786 | -0.50112 | 35076 ft | 431 kts | 149° |
| 2026-05-07 14:49 | 50.88813 | -0.44817 | 35082 ft | 430 kts | 149° |
| 2026-05-07 14:49 | 50.83838 | -0.39544 | 35085 ft | 431 kts | 149° |
| 2026-05-07 14:50 | 50.78854 | -0.34278 | 35082 ft | 431 kts | 149° |
| 2026-05-07 14:50 | 50.73869 | -0.29020 | 35083 ft | 431 kts | 149° |
| 2026-05-07 14:51 | 50.68883 | -0.23780 | 35075 ft | 431 kts | 149° |
| 2026-05-07 14:51 | 50.63895 | -0.18547 | 35064 ft | 430 kts | 149° |
| 2026-05-07 14:52 | 50.58917 | -0.13324 | 35065 ft | 430 kts | 149° |
| 2026-05-07 14:52 | 50.53970 | -0.08154 | 35068 ft | 430 kts | 149° |
| 2026-05-07 14:53 | 50.48984 | -0.02976 | 35068 ft | 429 kts | 149° |
| 2026-05-07 14:53 | 50.43999 | 0.02187 | 35069 ft | 430 kts | 149° |
| 2026-05-07 14:54 | 50.39012 | 0.07354 | 35059 ft | 430 kts | 149° |
| 2026-05-07 14:54 | 50.34024 | 0.12502 | 35059 ft | 429 kts | 149° |
| 2026-05-07 14:55 | 50.29028 | 0.17641 | 35063 ft | 429 kts | 150° |
| 2026-05-07 14:55 | 50.24041 | 0.22768 | 35059 ft | 429 kts | 149° |
| 2026-05-07 14:56 | 50.19049 | 0.27903 | 35061 ft | 429 kts | 149° |
| 2026-05-07 14:56 | 50.14065 | 0.33024 | 35062 ft | 429 kts | 149° |
| 2026-05-07 14:57 | 50.09081 | 0.38153 | 35068 ft | 429 kts | 149° |
| 2026-05-07 14:57 | 50.04094 | 0.43250 | 35066 ft | 429 kts | 149° |
| 2026-05-07 14:58 | 49.99102 | 0.48331 | 35062 ft | 429 kts | 149° |
| 2026-05-07 14:58 | 49.94113 | 0.53418 | 35044 ft | 429 kts | 149° |
| 2026-05-07 14:59 | 49.89127 | 0.58501 | 35050 ft | 429 kts | 149° |
| 2026-05-07 14:59 | 49.84143 | 0.63580 | 35049 ft | 429 kts | 148° |
| 2026-05-07 15:00 | 49.79260 | 0.68917 | 35051 ft | 430 kts | 147° |
| 2026-05-07 15:00 | 49.74472 | 0.74343 | 35047 ft | 430 kts | 146° |
| 2026-05-07 15:01 | 49.69631 | 0.79767 | 35041 ft | 429 kts | 147° |
| 2026-05-07 15:01 | 49.64772 | 0.85120 | 35040 ft | 429 kts | 147° |
| 2026-05-07 15:02 | 49.59897 | 0.90449 | 35033 ft | 429 kts | 147° |
| 2026-05-07 15:02 | 49.55029 | 0.95774 | 35036 ft | 429 kts | 147° |
| 2026-05-07 15:03 | 49.50157 | 1.01096 | 35031 ft | 429 kts | 147° |
| 2026-05-07 15:03 | 49.45278 | 1.06405 | 35039 ft | 430 kts | 147° |
| 2026-05-07 15:04 | 49.40395 | 1.11707 | 35041 ft | 430 kts | 147° |
| 2026-05-07 15:04 | 49.35514 | 1.17001 | 35040 ft | 430 kts | 147° |
| 2026-05-07 15:05 | 49.30630 | 1.22290 | 35044 ft | 430 kts | 147° |
| 2026-05-07 15:05 | 49.25741 | 1.27557 | 35035 ft | 430 kts | 148° |
| 2026-05-07 15:06 | 49.20842 | 1.32813 | 35036 ft | 430 kts | 148° |
| 2026-05-07 15:06 | 49.15948 | 1.38072 | 35038 ft | 430 kts | 147° |
| 2026-05-07 15:07 | 49.11050 | 1.43329 | 35040 ft | 430 kts | 148° |
| 2026-05-07 15:07 | 49.06138 | 1.48567 | 35030 ft | 431 kts | 148° |
| 2026-05-07 15:08 | 49.01262 | 1.53763 | 35034 ft | 431 kts | 148° |
| 2026-05-07 15:08 | 48.96348 | 1.58990 | 35040 ft | 431 kts | 148° |
| 2026-05-07 15:09 | 48.91427 | 1.64203 | 35044 ft | 431 kts | 148° |
| 2026-05-07 15:09 | 48.86505 | 1.69397 | 35036 ft | 431 kts | 148° |
| 2026-05-07 15:10 | 48.81586 | 1.74591 | 35036 ft | 431 kts | 148° |
| 2026-05-07 15:10 | 48.76668 | 1.79787 | 35028 ft | 431 kts | 148° |
| 2026-05-07 15:11 | 48.71738 | 1.84962 | 35027 ft | 431 kts | 148° |
| 2026-05-07 15:11 | 48.66801 | 1.90123 | 35018 ft | 431 kts | 148° |
| 2026-05-07 15:12 | 48.61863 | 1.95283 | 35017 ft | 432 kts | 148° |
| 2026-05-07 15:12 | 48.56923 | 2.00434 | 35021 ft | 431 kts | 148° |
| 2026-05-07 15:13 | 48.51981 | 2.05577 | 35023 ft | 432 kts | 148° |
| 2026-05-07 15:13 | 48.47037 | 2.10717 | 35030 ft | 431 kts | 148° |
| 2026-05-07 15:14 | 48.42089 | 2.15834 | 35024 ft | 431 kts | 148° |
| 2026-05-07 15:14 | 48.37136 | 2.20943 | 35011 ft | 432 kts | 148° |
| 2026-05-07 15:15 | 48.32178 | 2.26036 | 35020 ft | 432 kts | 148° |
| 2026-05-07 15:15 | 48.26975 | 2.30405 | 35019 ft | 426 kts | 163° |
| 2026-05-07 15:16 | 48.21299 | 2.32806 | 35020 ft | 424 kts | 168° |
| 2026-05-07 15:16 | 48.15595 | 2.35065 | 35011 ft | 424 kts | 168° |
| 2026-05-07 15:17 | 48.09910 | 2.37475 | 35013 ft | 425 kts | 165° |
| 2026-05-07 15:17 | 48.04302 | 2.40313 | 35018 ft | 426 kts | 163° |
| 2026-05-07 15:18 | 47.98704 | 2.43239 | 35013 ft | 426 kts | 164° |
| 2026-05-07 15:18 | 47.93081 | 2.46077 | 35012 ft | 426 kts | 165° |
| 2026-05-07 15:19 | 47.87456 | 2.48846 | 35015 ft | 426 kts | 165° |
| 2026-05-07 15:19 | 47.81840 | 2.51594 | 35016 ft | 426 kts | 165° |
| 2026-05-07 15:20 | 47.76239 | 2.54352 | 35004 ft | 426 kts | 165° |
| 2026-05-07 15:20 | 47.70606 | 2.57120 | 35011 ft | 427 kts | 165° |
| 2026-05-07 15:21 | 47.64972 | 2.59880 | 35012 ft | 427 kts | 165° |
| 2026-05-07 15:21 | 47.59328 | 2.62638 | 35014 ft | 427 kts | 165° |
| 2026-05-07 15:22 | 47.53698 | 2.65381 | 35012 ft | 427 kts | 165° |
| 2026-05-07 15:22 | 47.48054 | 2.68124 | 35015 ft | 426 kts | 165° |
| 2026-05-07 15:23 | 47.42414 | 2.70863 | 35014 ft | 427 kts | 165° |
| 2026-05-07 15:23 | 47.36776 | 2.73599 | 35015 ft | 427 kts | 165° |
| 2026-05-07 15:24 | 47.31137 | 2.76329 | 35000 ft | 426 kts | 166° |
| 2026-05-07 15:24 | 47.25497 | 2.79052 | 35003 ft | 426 kts | 166° |
| 2026-05-07 15:25 | 47.19859 | 2.81765 | 35010 ft | 426 kts | 166° |
| 2026-05-07 15:25 | 47.14216 | 2.84470 | 34999 ft | 426 kts | 166° |
| 2026-05-07 15:26 | 47.08610 | 2.87150 | 35006 ft | 427 kts | 166° |
| 2026-05-07 15:26 | 47.02966 | 2.89852 | 35002 ft | 427 kts | 166° |
| 2026-05-07 15:27 | 46.97315 | 2.92543 | 35008 ft | 427 kts | 166° |
| 2026-05-07 15:27 | 46.91666 | 2.95228 | 34287 ft | 425 kts | 162° |
| 2026-05-07 15:28 | 46.88848 | 2.96569 | 35046 ft | 427 kts | 166° |
| 2026-05-07 15:28 | 46.86022 | 2.97913 | 35024 ft | 427 kts | 166° |
| 2026-05-07 15:28 | 46.80371 | 3.00593 | 35020 ft | 427 kts | 166° |
| 2026-05-07 15:29 | 46.74715 | 3.03261 | 35019 ft | 427 kts | 166° |
| 2026-05-07 15:29 | 46.69065 | 3.05917 | 35017 ft | 427 kts | 166° |
| 2026-05-07 15:30 | 46.63404 | 3.08591 | 35010 ft | 427 kts | 166° |
| 2026-05-07 15:30 | 46.57755 | 3.11245 | 35008 ft | 427 kts | 166° |
| 2026-05-07 15:31 | 46.52111 | 3.13928 | 34994 ft | 427 kts | 165° |
| 2026-05-07 15:31 | 46.46526 | 3.16907 | 34997 ft | 428 kts | 163° |
| 2026-05-07 15:32 | 46.41903 | 3.19491 | 34997 ft | 428 kts | 163° |
| 2026-05-07 15:32 | 46.36339 | 3.22550 | 34988 ft | 428 kts | 164° |
| 2026-05-07 15:33 | 46.30764 | 3.25536 | 34977 ft | 427 kts | 165° |
| 2026-05-07 15:33 | 46.25183 | 3.28507 | 34982 ft | 427 kts | 164° |
| 2026-05-07 15:34 | 46.19605 | 3.31483 | 34988 ft | 427 kts | 164° |
| 2026-05-07 15:34 | 46.14031 | 3.34450 | 34991 ft | 427 kts | 164° |
| 2026-05-07 15:35 | 46.08456 | 3.37414 | 34990 ft | 426 kts | 164° |
| 2026-05-07 15:35 | 46.02933 | 3.40338 | 34995 ft | 426 kts | 164° |
| 2026-05-07 15:36 | 45.97371 | 3.43274 | 34998 ft | 425 kts | 164° |
| 2026-05-07 15:36 | 45.91822 | 3.46207 | 34990 ft | 425 kts | 164° |
| 2026-05-07 15:37 | 45.86273 | 3.49137 | 34994 ft | 424 kts | 165° |
| 2026-05-07 15:37 | 45.80678 | 3.51742 | 35000 ft | 422 kts | 168° |
| 2026-05-07 15:38 | 45.75047 | 3.54055 | 34994 ft | 421 kts | 168° |
| 2026-05-07 15:38 | 45.69416 | 3.56381 | 34988 ft | 421 kts | 168° |
| 2026-05-07 15:39 | 45.63800 | 3.58769 | 34996 ft | 420 kts | 167° |
| 2026-05-07 15:39 | 45.58204 | 3.61185 | 34999 ft | 420 kts | 167° |
| 2026-05-07 15:40 | 45.52616 | 3.63595 | 34994 ft | 420 kts | 167° |
| 2026-05-07 15:40 | 45.47027 | 3.65985 | 34981 ft | 419 kts | 167° |
| 2026-05-07 15:41 | 45.41442 | 3.68360 | 34982 ft | 419 kts | 168° |
| 2026-05-07 15:41 | 45.35860 | 3.70725 | 34978 ft | 418 kts | 168° |
| 2026-05-07 15:42 | 45.30327 | 3.73131 | 34957 ft | 420 kts | 163° |
| 2026-05-07 15:42 | 45.27685 | 3.74948 | 34966 ft | 426 kts | 152° |
| 2026-05-07 15:42 | 45.25291 | 3.77464 | 34981 ft | 431 kts | 141° |
| 2026-05-07 15:43 | 45.23247 | 3.80610 | 34979 ft | 437 kts | 130° |
| 2026-05-07 15:43 | 45.21559 | 3.84213 | 34983 ft | 439 kts | 127° |
| 2026-05-07 15:43 | 45.18249 | 3.91505 | 34976 ft | 440 kts | 127° |
| 2026-05-07 15:44 | 45.14914 | 3.98783 | 34975 ft | 440 kts | 127° |
| 2026-05-07 15:44 | 45.11578 | 4.06059 | 34962 ft | 441 kts | 127° |
| 2026-05-07 15:45 | 45.08246 | 4.13335 | 34967 ft | 440 kts | 127° |
| 2026-05-07 15:45 | 45.04906 | 4.20587 | 34971 ft | 440 kts | 127° |
| 2026-05-07 15:46 | 44.99122 | 4.30503 | 34959 ft | 435 kts | 137° |
| 2026-05-07 15:47 | 44.95024 | 4.36785 | 34964 ft | 435 kts | 137° |
| 2026-05-07 15:47 | 44.90919 | 4.43073 | 34956 ft | 435 kts | 137° |
| 2026-05-07 15:48 | 44.86819 | 4.49359 | 34955 ft | 435 kts | 137° |
| 2026-05-07 15:48 | 44.82711 | 4.55632 | 34961 ft | 435 kts | 137° |
| 2026-05-07 15:49 | 44.78631 | 4.61849 | 34949 ft | 435 kts | 138° |
| 2026-05-07 15:49 | 44.74515 | 4.68102 | 34950 ft | 436 kts | 138° |
| 2026-05-07 15:50 | 44.70395 | 4.74345 | 34953 ft | 436 kts | 138° |
| 2026-05-07 15:50 | 44.66278 | 4.80601 | 34956 ft | 436 kts | 138° |
| 2026-05-07 15:51 | 44.62160 | 4.86857 | 34956 ft | 436 kts | 137° |
| 2026-05-07 15:51 | 44.58153 | 4.93262 | 34951 ft | 437 kts | 136° |
| 2026-05-07 15:52 | 44.54180 | 4.99718 | 34941 ft | 437 kts | 136° |
| 2026-05-07 15:52 | 44.50139 | 5.06183 | 34953 ft | 446 kts | 137° |
| 2026-05-07 15:53 | 44.46012 | 5.12714 | 34965 ft | 449 kts | 137° |
| 2026-05-07 15:53 | 44.43942 | 5.15989 | 34674 ft | 450 kts | 137° |
| 2026-05-07 15:53 | 44.41857 | 5.19287 | 33868 ft | 454 kts | 136° |
| 2026-05-07 15:53 | 44.39772 | 5.22595 | 33171 ft | 452 kts | 136° |
| 2026-05-07 15:54 | 44.37688 | 5.25844 | 32557 ft | 446 kts | 140° |
| 2026-05-07 15:54 | 44.35375 | 5.28656 | 31982 ft | 437 kts | 147° |
| 2026-05-07 15:54 | 44.32987 | 5.31266 | 31410 ft | 434 kts | 147° |
| 2026-05-07 15:54 | 44.30648 | 5.33812 | 30867 ft | 430 kts | 148° |
| 2026-05-07 15:55 | 44.28293 | 5.36368 | 30293 ft | 428 kts | 148° |
| 2026-05-07 15:55 | 44.25953 | 5.38909 | 29746 ft | 425 kts | 148° |
| 2026-05-07 15:55 | 44.23629 | 5.41428 | 29111 ft | 422 kts | 147° |
| 2026-05-07 15:55 | 44.21333 | 5.43924 | 28644 ft | 416 kts | 147° |
| 2026-05-07 15:56 | 44.19065 | 5.46389 | 28181 ft | 411 kts | 147° |
| 2026-05-07 15:56 | 44.16826 | 5.48821 | 27712 ft | 405 kts | 147° |
| 2026-05-07 15:56 | 44.14618 | 5.51214 | 27262 ft | 400 kts | 147° |
| 2026-05-07 15:56 | 44.12437 | 5.53576 | 26814 ft | 395 kts | 147° |
| 2026-05-07 15:57 | 44.10281 | 5.55909 | 26375 ft | 390 kts | 147° |
| 2026-05-07 15:57 | 44.08148 | 5.58219 | 25932 ft | 386 kts | 147° |
| 2026-05-07 15:57 | 44.06045 | 5.60500 | 25503 ft | 382 kts | 146° |
| 2026-05-07 15:57 | 44.03956 | 5.62760 | 25078 ft | 379 kts | 146° |
| 2026-05-07 15:58 | 44.01886 | 5.64995 | 24653 ft | 375 kts | 146° |
| 2026-05-07 15:58 | 43.99834 | 5.67202 | 24234 ft | 371 kts | 146° |
| 2026-05-07 15:58 | 43.97800 | 5.69386 | 23816 ft | 368 kts | 146° |
| 2026-05-07 15:58 | 43.95779 | 5.71555 | 23373 ft | 366 kts | 146° |
| 2026-05-07 15:59 | 43.93779 | 5.73707 | 22945 ft | 361 kts | 146° |
| 2026-05-07 15:59 | 43.91802 | 5.75833 | 22544 ft | 358 kts | 146° |
| 2026-05-07 15:59 | 43.89844 | 5.77931 | 22148 ft | 354 kts | 146° |
| 2026-05-07 15:59 | 43.87899 | 5.80007 | 21743 ft | 352 kts | 145° |
| 2026-05-07 16:00 | 43.85970 | 5.82067 | 21353 ft | 349 kts | 145° |
| 2026-05-07 16:00 | 43.84055 | 5.84112 | 20964 ft | 346 kts | 145° |
| 2026-05-07 16:00 | 43.82179 | 5.86114 | 20574 ft | 344 kts | 145° |
| 2026-05-07 16:00 | 43.80290 | 5.88132 | 20179 ft | 342 kts | 145° |
| 2026-05-07 16:01 | 43.78414 | 5.90137 | 19805 ft | 340 kts | 144° |
| 2026-05-07 16:01 | 43.76549 | 5.92121 | 19416 ft | 337 kts | 145° |
| 2026-05-07 16:01 | 43.74690 | 5.94090 | 19040 ft | 335 kts | 144° |
| 2026-05-07 16:01 | 43.72845 | 5.96047 | 18663 ft | 334 kts | 145° |
| 2026-05-07 16:02 | 43.71006 | 5.97999 | 18292 ft | 332 kts | 144° |
| 2026-05-07 16:02 | 43.69180 | 5.99940 | 17879 ft | 330 kts | 144° |
| 2026-05-07 16:02 | 43.67367 | 6.01865 | 17525 ft | 327 kts | 144° |
| 2026-05-07 16:02 | 43.65569 | 6.03774 | 17139 ft | 325 kts | 144° |
| 2026-05-07 16:03 | 43.63782 | 6.05664 | 16780 ft | 322 kts | 144° |
| 2026-05-07 16:03 | 43.62008 | 6.07537 | 16417 ft | 320 kts | 144° |
| 2026-05-07 16:03 | 43.60366 | 6.09611 | 16052 ft | 321 kts | 133° |
| 2026-05-07 16:03 | 43.59095 | 6.12146 | 15709 ft | 322 kts | 119° |
| 2026-05-07 16:04 | 43.58230 | 6.14992 | 15368 ft | 322 kts | 112° |
| 2026-05-07 16:04 | 43.57444 | 6.17882 | 15027 ft | 321 kts | 112° |
| 2026-05-07 16:04 | 43.56658 | 6.20751 | 14681 ft | 320 kts | 112° |
| 2026-05-07 16:04 | 43.55867 | 6.23617 | 14340 ft | 319 kts | 113° |
| 2026-05-07 16:05 | 43.55080 | 6.26469 | 13996 ft | 318 kts | 113° |
| 2026-05-07 16:05 | 43.54297 | 6.29306 | 13644 ft | 317 kts | 113° |
| 2026-05-07 16:05 | 43.53516 | 6.32135 | 13293 ft | 315 kts | 112° |
| 2026-05-07 16:05 | 43.52741 | 6.34935 | 12951 ft | 312 kts | 112° |
| 2026-05-07 16:06 | 43.51970 | 6.37716 | 12620 ft | 309 kts | 112° |
| 2026-05-07 16:06 | 43.51206 | 6.40474 | 12286 ft | 307 kts | 113° |
| 2026-05-07 16:06 | 43.50312 | 6.43120 | 11958 ft | 303 kts | 123° |
| 2026-05-07 16:06 | 43.49035 | 6.45389 | 11783 ft | 298 kts | 136° |
| 2026-05-07 16:07 | 43.47595 | 6.47450 | 11643 ft | 299 kts | 135° |
| 2026-05-07 16:07 | 43.46157 | 6.49524 | 11491 ft | 299 kts | 135° |
| 2026-05-07 16:07 | 43.44722 | 6.51590 | 11332 ft | 298 kts | 135° |
| 2026-05-07 16:07 | 43.43293 | 6.53649 | 11184 ft | 297 kts | 135° |
| 2026-05-07 16:08 | 43.41867 | 6.55706 | 11030 ft | 296 kts | 134° |
| 2026-05-07 16:08 | 43.40450 | 6.57760 | 10900 ft | 296 kts | 133° |
| 2026-05-07 16:08 | 43.39266 | 6.60028 | 10744 ft | 297 kts | 118° |
| 2026-05-07 16:08 | 43.38522 | 6.62663 | 10587 ft | 296 kts | 104° |
| 2026-05-07 16:09 | 43.38265 | 6.65460 | 10435 ft | 295 kts | 93° |
| 2026-05-07 16:09 | 43.38157 | 6.68277 | 10291 ft | 295 kts | 93° |
| 2026-05-07 16:09 | 43.38100 | 6.71088 | 10093 ft | 294 kts | 85° |
| 2026-05-07 16:09 | 43.38350 | 6.73865 | 9884 ft | 292 kts | 82° |
| 2026-05-07 16:10 | 43.38615 | 6.76628 | 9755 ft | 291 kts | 82° |
| 2026-05-07 16:10 | 43.38880 | 6.79388 | 9622 ft | 291 kts | 82° |
| 2026-05-07 16:10 | 43.39141 | 6.82143 | 9490 ft | 290 kts | 82° |
| 2026-05-07 16:10 | 43.39402 | 6.84890 | 9353 ft | 290 kts | 83° |
| 2026-05-07 16:11 | 43.39661 | 6.87639 | 9222 ft | 290 kts | 83° |
| 2026-05-07 16:11 | 43.39918 | 6.90394 | 9092 ft | 290 kts | 83° |
| 2026-05-07 16:11 | 43.40172 | 6.93139 | 8961 ft | 289 kts | 83° |
| 2026-05-07 16:11 | 43.40425 | 6.95876 | 8832 ft | 288 kts | 83° |
| 2026-05-07 16:12 | 43.40681 | 6.98613 | 8703 ft | 288 kts | 83° |
| 2026-05-07 16:12 | 43.40935 | 7.01339 | 8564 ft | 287 kts | 83° |
| 2026-05-07 16:12 | 43.41187 | 7.04059 | 8449 ft | 286 kts | 83° |
| 2026-05-07 16:12 | 43.41439 | 7.06771 | 8319 ft | 286 kts | 83° |
| 2026-05-07 16:13 | 43.41691 | 7.09486 | 8194 ft | 286 kts | 83° |
| 2026-05-07 16:13 | 43.42048 | 7.12169 | 8074 ft | 285 kts | 74° |
| 2026-05-07 16:13 | 43.42583 | 7.14795 | 7944 ft | 285 kts | 74° |
| 2026-05-07 16:13 | 43.43117 | 7.17419 | 7819 ft | 285 kts | 74° |
| 2026-05-07 16:14 | 43.43646 | 7.20040 | 7691 ft | 284 kts | 74° |
| 2026-05-07 16:14 | 43.44173 | 7.22655 | 7570 ft | 283 kts | 74° |
| 2026-05-07 16:14 | 43.44700 | 7.25267 | 7450 ft | 283 kts | 74° |
| 2026-05-07 16:14 | 43.45225 | 7.27867 | 7325 ft | 282 kts | 75° |
| 2026-05-07 16:15 | 43.45741 | 7.30438 | 7206 ft | 282 kts | 75° |
| 2026-05-07 16:15 | 43.46262 | 7.33041 | 7070 ft | 281 kts | 75° |
| 2026-05-07 16:15 | 43.46776 | 7.35612 | 6724 ft | 277 kts | 75° |
| 2026-05-07 16:15 | 43.47287 | 7.38168 | 6297 ft | 278 kts | 75° |
| 2026-05-07 16:16 | 43.47800 | 7.40736 | 5826 ft | 278 kts | 75° |
| 2026-05-07 16:16 | 43.48313 | 7.43305 | 5376 ft | 278 kts | 75° |
| 2026-05-07 16:16 | 43.48823 | 7.45866 | 4959 ft | 276 kts | 74° |
| 2026-05-07 16:16 | 43.49629 | 7.48249 | 4501 ft | 276 kts | 50° |
| 2026-05-07 16:17 | 43.51104 | 7.49814 | 4342 ft | 263 kts | 22° |
| 2026-05-07 16:17 | 43.52834 | 7.50282 | 4219 ft | 248 kts | 355° |
| 2026-05-07 16:17 | 43.54499 | 7.49942 | 4100 ft | 236 kts | 349° |
| 2026-05-07 16:17 | 43.56080 | 7.49561 | 3991 ft | 227 kts | 349° |
| 2026-05-07 16:18 | 43.57560 | 7.48954 | 3881 ft | 218 kts | 330° |
| 2026-05-07 16:18 | 43.58736 | 7.47711 | 3696 ft | 212 kts | 310° |
| 2026-05-07 16:18 | 43.59589 | 7.46096 | 3436 ft | 205 kts | 303° |
| 2026-05-07 16:18 | 43.60395 | 7.44513 | 3169 ft | 199 kts | 303° |
| 2026-05-07 16:19 | 43.61181 | 7.42976 | 2922 ft | 193 kts | 303° |
| 2026-05-07 16:19 | 43.61949 | 7.41475 | 2666 ft | 190 kts | 304° |
| 2026-05-07 16:19 | 43.62700 | 7.40000 | 2418 ft | 186 kts | 304° |
| 2026-05-07 16:19 | 43.63433 | 7.38556 | 2164 ft | 181 kts | 303° |
| 2026-05-07 16:20 | 43.64133 | 7.37185 | 1944 ft | 168 kts | 303° |
| 2026-05-07 16:20 | 43.64795 | 7.35889 | 1734 ft | 160 kts | 303° |
| 2026-05-07 16:20 | 43.65409 | 7.34686 | 1514 ft | 149 kts | 303° |
| 2026-05-07 16:20 | 43.65996 | 7.33532 | 1319 ft | 146 kts | 303° |
| 2026-05-07 16:21 | 43.66573 | 7.32389 | 1139 ft | 145 kts | 303° |
| 2026-05-07 16:21 | 43.67137 | 7.31260 | 996 ft | 142 kts | 302° |
| 2026-05-07 16:21 | 43.67698 | 7.30143 | 980 ft | 141 kts | 304° |
| 2026-05-07 16:21 | 43.68266 | 7.29025 | 991 ft | 144 kts | 303° |
| 2026-05-07 16:22 | 43.68828 | 7.27861 | 916 ft | 145 kts | 297° |
| 2026-05-07 16:22 | 43.68983 | 7.26529 | 735 ft | 141 kts | 258° |
| 2026-05-07 16:22 | 43.68662 | 7.25279 | 621 ft | 137 kts | 236° |
| 2026-05-07 16:22 | 43.68022 | 7.24300 | 427 ft | 138 kts | 223° |
| 2026-05-07 16:23 | 43.67345 | 7.23377 | 214 ft | 136 kts | 224° |
| 2026-05-07 16:23 | 43.66674 | 7.22457 | 32 ft | 135 kts | 224° |
| 2026-05-07 16:23 | 43.66103 | 7.21671 | 20 ft | 91 kts | 225° |
| 2026-05-07 16:23 | 43.65776 | 7.21223 | 23 ft | 44 kts | 224° |
| 2026-05-07 16:24 | 43.65648 | 7.21046 | 23 ft | 14 kts | 224° |
| 2026-05-07 16:24 | 43.65624 | 7.20954 | 22 ft | 11 kts | 283° |
| 2026-05-07 16:24 | 43.65678 | 7.20892 | 21 ft | 10 kts | 345° |
| 2026-05-07 16:24 | 43.65745 | 7.20876 | 21 ft | 9 kts | 350° |
| 2026-05-07 16:25 | 43.65805 | 7.20862 | 21 ft | 8 kts | 350° |
| 2026-05-07 16:25 | 43.65857 | 7.20846 | 21 ft | 7 kts | 334° |
| 2026-05-07 16:25 | 43.65868 | 7.20791 | 21 ft | 6 kts | 252° |
| 2026-05-07 16:25 | 43.65826 | 7.20723 | 21 ft | 13 kts | 226° |
| 2026-05-07 16:26 | 43.65783 | 7.20663 | 21 ft | 13 kts | 225° |
| 2026-05-07 16:26 | 43.65715 | 7.20570 | 21 ft | 14 kts | 224° |
| 2026-05-07 16:26 | 43.65646 | 7.20476 | 21 ft | 14 kts | 225° |
| 2026-05-07 16:26 | 43.65610 | 7.20411 | 21 ft | 6 kts | 265° |
| 2026-05-07 16:27 | 43.65631 | 7.20372 | 21 ft | 5 kts | 315° |
| 2026-05-07 16:27 | 43.65653 | 7.20341 | 21 ft | 4 kts | 314° |
| 2026-05-07 16:27 | 43.65665 | 7.20325 | 21 ft | 0 kts | 315° |